Time;durP1;ratioP1;P1;durP2;ratioP2;P2;SDS_P1;SDS_P2;PMS_P1;PMS_P2;Temp;Humidity;BMP_temperature;BMP_pressure;BME280_temperature;BME280_humidity;BME280_pressure;Samples;Min_cycle;Max_cycle;Signal;HPM_P1;HPM_P2
2022/08/14 00:01:58;;;;;;;;;;;15.70;99.90;;;;;;4149700;28;20392;-56
2022/08/14 00:04:02;;;;;;;;;;;15.50;99.90;;;;;;4148398;28;20352;-56
2022/08/14 00:06:24;;;;;;;;;;;15.50;99.90;;;;;;4149753;28;19961;-56
2022/08/14 00:08:29;;;;;;;;;;;15.60;99.90;;;;;;4149521;28;19926;-56
2022/08/14 00:10:45;;;;;;;;;;;15.60;99.90;;;;;;4148651;28;19952;-56
2022/08/14 00:12:53;;;;;;;;;;;15.50;99.90;;;;;;4149681;28;19932;-56
2022/08/14 00:14:57;;;;;;;;;;;15.40;99.90;;;;;;4150042;28;20275;-56
2022/08/14 00:17:01;;;;;;;;;;;15.40;99.90;;;;;;4149582;28;20369;-56
2022/08/14 00:19:03;;;;;;;;;;;15.30;99.90;;;;;;4131976;28;19922;-57
2022/08/14 00:21:19;;;;;;;;;;;15.60;99.90;;;;;;4133412;28;19921;-56
2022/08/14 00:23:21;;;;;;;;;;;15.60;99.90;;;;;;4140307;28;19932;-56
2022/08/14 00:25:23;;;;;;;;;;;15.70;99.90;;;;;;4149434;28;19921;-56
2022/08/14 00:27:25;;;;;;;;;;;15.70;99.90;;;;;;4149704;28;19921;-55
2022/08/14 00:29:28;;;;;;;;;;;15.50;99.90;;;;;;4149355;28;19928;-56
2022/08/14 00:31:30;;;;;;;;;;;15.60;99.90;;;;;;4149438;28;19930;-57
2022/08/14 00:33:45;;;;;;;;;;;15.60;99.90;;;;;;4131924;28;19921;-56
2022/08/14 00:35:53;;;;;;;;;;;15.60;99.90;;;;;;4149137;28;19976;-57
2022/08/14 00:38:17;;;;;;;;;;;15.60;99.90;;;;;;4149497;28;19925;-57
2022/08/14 00:40:19;;;;;;;;;;;15.40;99.90;;;;;;4124281;28;19921;-56
2022/08/14 00:42:34;;;;;;;;;;;15.40;99.90;;;;;;4149135;28;19925;-56
2022/08/14 00:44:56;;;;;;;;;;;16.00;99.90;;;;;;4154509;28;19921;-56
2022/08/14 00:46:59;;;;;;;;;;;16.10;99.90;;;;;;4149219;28;20377;-56
2022/08/14 00:49:01;;;;;;;;;;;15.90;99.90;;;;;;4148963;28;19930;-57
2022/08/14 00:51:04;;;;;;;;;;;15.70;99.90;;;;;;4115617;28;20040;-56
2022/08/14 00:53:06;;;;;;;;;;;15.50;99.90;;;;;;4132651;28;19921;-56
2022/08/14 00:55:12;;;;;;;;;;;15.50;99.90;;;;;;4132647;28;20350;-56
2022/08/14 00:57:14;;;;;;;;;;;15.60;99.90;;;;;;4132774;28;19976;-56
2022/08/14 00:59:16;;;;;;;;;;;15.80;99.90;;;;;;4144124;28;20036;-56
2022/08/14 01:01:18;;;;;;;;;;;16.00;99.90;;;;;;4144601;28;19922;-56
2022/08/14 01:03:21;;;;;;;;;;;16.10;99.90;;;;;;4132715;28;19935;-56
2022/08/14 01:05:23;;;;;;;;;;;16.00;99.90;;;;;;4132528;28;19926;-57
2022/08/14 01:07:28;;;;;;;;;;;15.80;99.90;;;;;;4132634;28;19926;-56
2022/08/14 01:09:52;;;;;;;;;;;15.50;99.90;;;;;;4132486;28;20402;-57
2022/08/14 01:11:56;;;;;;;;;;;15.60;99.90;;;;;;4132729;28;20380;-57
2022/08/14 01:14:04;;;;;;;;;;;15.60;99.90;;;;;;4132717;28;19936;-57
2022/08/14 01:16:26;;;;;;;;;;;15.60;99.90;;;;;;4115168;28;20341;-57
2022/08/14 01:21:10;;;;;;;;;;;16.60;99.90;;;;;;4115024;28;20472;-56
2022/08/14 01:23:13;;;;;;;;;;;17.00;99.90;;;;;;4132404;28;19925;-56
2022/08/14 01:25:17;;;;;;;;;;;17.00;99.90;;;;;;4132354;28;19976;-56
2022/08/14 01:27:20;;;;;;;;;;;17.70;99.90;;;;;;4132107;28;19945;-57
2022/08/14 01:29:25;;;;;;;;;;;18.10;99.90;;;;;;4132444;28;19921;-56
2022/08/14 01:33:55;;;;;;;;;;;17.80;99.90;;;;;;4124474;28;19921;-56
2022/08/14 01:36:01;;;;;;;;;;;17.40;99.90;;;;;;4148051;28;20300;-57
2022/08/14 01:38:08;;;;;;;;;;;17.50;99.90;;;;;;4148525;28;19932;-55
2022/08/14 01:40:10;;;;;;;;;;;17.20;99.90;;;;;;4121603;28;20378;-57
2022/08/14 01:42:12;;;;;;;;;;;17.00;99.90;;;;;;4132345;28;20374;-55
2022/08/14 01:44:33;;;;;;;;;;;17.10;99.90;;;;;;4132015;28;19965;-56
2022/08/14 01:46:36;;;;;;;;;;;16.90;99.90;;;;;;4132033;28;19953;-56
2022/08/14 01:48:40;;;;;;;;;;;17.10;99.90;;;;;;4131958;28;20329;-56
2022/08/14 01:50:42;;;;;;;;;;;17.10;99.90;;;;;;4145075;28;19929;-56
2022/08/14 01:52:46;;;;;;;;;;;17.20;99.90;;;;;;4147954;28;19921;-56
2022/08/14 01:55:00;;;;;;;;;;;17.60;99.90;;;;;;4148196;28;20020;-57
2022/08/14 01:57:02;;;;;;;;;;;17.90;99.90;;;;;;4148297;28;19929;-57
2022/08/14 01:59:08;;;;;;;;;;;17.90;99.90;;;;;;4148256;28;20259;-56
2022/08/14 02:01:14;;;;;;;;;;;17.70;99.90;;;;;;4148207;28;19927;-56
2022/08/14 02:03:16;;;;;;;;;;;17.50;99.90;;;;;;4130518;28;20005;-56
2022/08/14 02:05:17;;;;;;;;;;;17.40;99.90;;;;;;4147850;28;20393;-56
2022/08/14 02:07:19;;;;;;;;;;;17.50;99.90;;;;;;4148318;28;19925;-58
2022/08/14 02:09:33;;;;;;;;;;;17.40;99.90;;;;;;4147916;28;19921;-56
2022/08/14 02:11:35;;;;;;;;;;;17.20;99.90;;;;;;4147727;28;19926;-56
2022/08/14 02:13:38;;;;;;;;;;;17.20;99.90;;;;;;4147835;28;19972;-56
2022/08/14 02:15:41;;;;;;;;;;;17.60;99.90;;;;;;4147684;28;19953;-57
2022/08/14 02:17:44;;;;;;;;;;;17.30;99.90;;;;;;4147909;28;19921;-56
2022/08/14 02:19:46;;;;;;;;;;;17.20;99.90;;;;;;4147704;28;19956;-56
2022/08/14 02:21:49;;;;;;;;;;;17.00;99.90;;;;;;4147649;28;19967;-56
2022/08/14 02:23:53;;;;;;;;;;;16.90;99.90;;;;;;4147709;28;19928;-56
2022/08/14 02:25:58;;;;;;;;;;;16.60;99.90;;;;;;4130185;28;20016;-57
2022/08/14 02:28:00;;;;;;;;;;;16.60;99.90;;;;;;4130134;28;19926;-58
2022/08/14 02:30:23;;;;;;;;;;;16.50;99.90;;;;;;4129983;28;19986;-56
2022/08/14 02:32:25;;;;;;;;;;;16.40;99.90;;;;;;4147637;28;19931;-56
2022/08/14 02:34:35;;;;;;;;;;;16.50;99.90;;;;;;4147033;28;19921;-57
2022/08/14 02:36:37;;;;;;;;;;;16.60;99.90;;;;;;4121484;28;19957;-57
2022/08/14 02:38:59;;;;;;;;;;;16.60;99.90;;;;;;4147925;28;20348;-57
2022/08/14 02:41:02;;;;;;;;;;;16.70;99.90;;;;;;4147333;28;19921;-56
2022/08/14 02:43:10;;;;;;;;;;;17.10;99.90;;;;;;4147702;28;20456;-57
2022/08/14 02:45:13;;;;;;;;;;;17.10;99.90;;;;;;4147388;28;20039;-56
2022/08/14 02:47:16;;;;;;;;;;;17.00;99.90;;;;;;4147410;28;20453;-55
2022/08/14 02:49:26;;;;;;;;;;;16.90;99.90;;;;;;4147390;28;19932;-56
2022/08/14 02:51:28;;;;;;;;;;;16.80;99.90;;;;;;4147306;28;20345;-56
2022/08/14 02:53:31;;;;;;;;;;;16.70;99.90;;;;;;4147358;28;19943;-57
2022/08/14 02:55:34;;;;;;;;;;;16.70;99.90;;;;;;4158226;28;20015;-57
2022/08/14 02:57:36;;;;;;;;;;;16.90;99.90;;;;;;4147341;28;20370;-56
2022/08/14 02:59:41;;;;;;;;;;;16.80;99.90;;;;;;4137493;28;20023;-56
2022/08/14 03:01:44;;;;;;;;;;;16.60;99.90;;;;;;4163525;28;19921;-56
2022/08/14 03:03:52;;;;;;;;;;;16.50;99.90;;;;;;4148238;28;20106;-57
2022/08/14 03:05:54;;;;;;;;;;;16.50;99.90;;;;;;4147071;28;19926;-56
2022/08/14 03:08:06;;;;;;;;;;;16.20;99.90;;;;;;4147425;28;19921;-56
2022/08/14 03:10:09;;;;;;;;;;;16.30;99.90;;;;;;4147151;28;20019;-56
2022/08/14 03:12:27;;;;;;;;;;;16.20;99.90;;;;;;4147110;28;20016;-58
2022/08/14 03:14:45;;;;;;;;;;;16.10;99.90;;;;;;4147639;28;19925;-56
2022/08/14 03:16:49;;;;;;;;;;;16.20;99.90;;;;;;4147240;28;19932;-56
2022/08/14 03:18:53;;;;;;;;;;;16.40;99.90;;;;;;4147359;28;19928;-57
2022/08/14 03:20:55;;;;;;;;;;;16.40;99.90;;;;;;4147411;28;19921;-56
2022/08/14 03:22:58;;;;;;;;;;;16.40;99.90;;;;;;4147109;28;19976;-56
2022/08/14 03:25:01;;;;;;;;;;;16.50;99.90;;;;;;4161994;28;19924;-57
2022/08/14 03:27:03;;;;;;;;;;;16.50;99.90;;;;;;4163464;28;20373;-56
2022/08/14 03:29:06;;;;;;;;;;;16.50;99.90;;;;;;4150393;28;19968;-56
2022/08/14 03:31:08;;;;;;;;;;;16.50;99.90;;;;;;4147186;28;20025;-56
2022/08/14 03:33:14;;;;;;;;;;;16.50;99.90;;;;;;4147383;28;19925;-56
2022/08/14 03:35:16;;;;;;;;;;;16.40;99.90;;;;;;4147093;28;19968;-56
2022/08/14 03:37:19;;;;;;;;;;;16.20;99.90;;;;;;4161628;28;20055;-56
2022/08/14 03:39:30;;;;;;;;;;;16.00;99.90;;;;;;4163571;28;19932;-56
2022/08/14 03:41:34;;;;;;;;;;;16.10;99.90;;;;;;4152526;28;19925;-57
2022/08/14 03:43:36;;;;;;;;;;;16.00;99.90;;;;;;4146796;28;19961;-56
2022/08/14 03:45:38;;;;;;;;;;;15.80;99.90;;;;;;4149454;28;20019;-56
2022/08/14 03:47:41;;;;;;;;;;;15.70;99.90;;;;;;4149940;28;20036;-57
2022/08/14 03:49:57;;;;;;;;;;;15.70;99.90;;;;;;4149912;28;19921;-56
2022/08/14 03:52:03;;;;;;;;;;;15.70;99.90;;;;;;4162660;28;19921;-56
2022/08/14 03:54:07;;;;;;;;;;;15.80;99.90;;;;;;4166126;28;20295;-56
2022/08/14 03:56:13;;;;;;;;;;;15.60;99.90;;;;;;4166092;28;19925;-56
2022/08/14 03:58:17;;;;;;;;;;;15.70;99.90;;;;;;4150051;28;20300;-56
2022/08/14 04:00:24;;;;;;;;;;;15.70;99.90;;;;;;4149994;28;19928;-56
2022/08/14 04:02:45;;;;;;;;;;;15.70;99.90;;;;;;4149943;28;19921;-56
2022/08/14 04:04:48;;;;;;;;;;;15.60;99.90;;;;;;4149903;28;19922;-56
2022/08/14 04:06:51;;;;;;;;;;;15.40;99.90;;;;;;4149890;28;19925;-56
2022/08/14 04:08:53;;;;;;;;;;;15.40;99.90;;;;;;4149724;28;19925;-56
2022/08/14 04:10:56;;;;;;;;;;;15.30;99.90;;;;;;4149548;28;19985;-56
2022/08/14 04:13:00;;;;;;;;;;;15.20;99.90;;;;;;4149710;28;19925;-56
2022/08/14 04:15:05;;;;;;;;;;;15.20;99.90;;;;;;4149633;28;20349;-56
2022/08/14 04:17:07;;;;;;;;;;;15.00;99.90;;;;;;4149520;28;19971;-56
2022/08/14 04:19:10;;;;;;;;;;;15.00;99.90;;;;;;4164729;28;20027;-57
2022/08/14 04:21:13;;;;;;;;;;;15.10;99.90;;;;;;4165785;28;20316;-57
2022/08/14 04:23:15;;;;;;;;;;;15.00;99.90;;;;;;4153058;28;20328;-57
2022/08/14 04:25:24;;;;;;;;;;;15.00;99.90;;;;;;4149409;28;19921;-56
2022/08/14 04:27:27;;;;;;;;;;;15.00;99.90;;;;;;4149705;28;19925;-56
2022/08/14 04:29:29;;;;;;;;;;;14.90;99.90;;;;;;4149470;28;20263;-56
2022/08/14 04:31:33;;;;;;;;;;;14.90;99.90;;;;;;4149201;28;19932;-57
2022/08/14 04:33:55;;;;;;;;;;;14.90;99.90;;;;;;4149261;28;20286;-55
2022/08/14 04:35:57;;;;;;;;;;;14.90;99.90;;;;;;4163719;28;19964;-56
2022/08/14 04:45:19;;;;;;;;;;;14.80;99.90;;;;;;4159375;28;20333;-57
2022/08/14 04:49:47;;;;;;;;;;;15.00;99.90;;;;;;4147536;28;20416;-56
2022/08/14 04:51:59;;;;;;;;;;;15.00;99.90;;;;;;4152549;28;19925;-55
2022/08/14 04:54:03;;;;;;;;;;;15.00;99.90;;;;;;4149127;28;19929;-56
2022/08/14 04:56:05;;;;;;;;;;;14.80;99.90;;;;;;4131114;28;19957;-57
2022/08/14 04:58:11;;;;;;;;;;;14.90;99.90;;;;;;4148725;28;19921;-56
2022/08/14 05:00:22;;;;;;;;;;;15.00;99.90;;;;;;4149114;28;19925;-57
2022/08/14 05:02:26;;;;;;;;;;;15.00;99.90;;;;;;4148716;28;19922;-56
2022/08/14 05:04:28;;;;;;;;;;;15.00;99.90;;;;;;4148951;28;19926;-56
2022/08/14 05:06:31;;;;;;;;;;;14.90;99.90;;;;;;4149133;28;19928;-57
2022/08/14 05:08:38;;;;;;;;;;;14.70;99.90;;;;;;4149023;28;19931;-55
2022/08/14 05:10:59;;;;;;;;;;;14.70;99.90;;;;;;4157702;28;19928;-59
2022/08/14 05:13:04;;;;;;;;;;;14.70;99.90;;;;;;4145748;28;19929;-56
2022/08/14 05:15:15;;;;;;;;;;;14.80;99.90;;;;;;4167552;28;19921;-56
2022/08/14 05:17:17;;;;;;;;;;;15.00;99.90;;;;;;4168850;28;20012;-56
2022/08/14 05:19:22;;;;;;;;;;;15.00;99.90;;;;;;4173959;28;20372;-57
2022/08/14 05:21:28;;;;;;;;;;;15.00;99.90;;;;;;4148783;28;19971;-56
2022/08/14 05:23:50;;;;;;;;;;;15.10;99.90;;;;;;4148450;28;19925;-56
2022/08/14 05:25:54;;;;;;;;;;;15.20;99.90;;;;;;4151830;28;19925;-57
2022/08/14 05:27:59;;;;;;;;;;;15.30;99.90;;;;;;4169169;28;19927;-57
2022/08/14 05:30:03;;;;;;;;;;;15.40;99.90;;;;;;4163228;28;19921;-56
2022/08/14 05:32:06;;;;;;;;;;;15.50;99.90;;;;;;4170761;28;20312;-56
2022/08/14 05:34:09;;;;;;;;;;;15.50;99.90;;;;;;4140841;28;20408;-56
2022/08/14 05:36:11;;;;;;;;;;;15.50;99.90;;;;;;4171156;28;19948;-56
2022/08/14 05:38:18;;;;;;;;;;;15.50;99.90;;;;;;4164396;28;19925;-56
2022/08/14 05:40:31;;;;;;;;;;;15.50;99.90;;;;;;4164744;28;19921;-56
2022/08/14 05:42:33;;;;;;;;;;;15.50;99.90;;;;;;4155369;28;19972;-57
2022/08/14 05:44:35;;;;;;;;;;;15.60;99.90;;;;;;4161418;28;19921;-55
2022/08/14 05:46:37;;;;;;;;;;;15.90;99.90;;;;;;4148180;28;19932;-56
2022/08/14 05:48:39;;;;;;;;;;;16.00;99.90;;;;;;4150168;28;19975;-56
2022/08/14 05:50:44;;;;;;;;;;;16.30;99.90;;;;;;4163983;28;19925;-55
2022/08/14 05:52:47;;;;;;;;;;;16.30;99.90;;;;;;4149786;28;19984;-56
2022/08/14 05:54:49;;;;;;;;;;;16.20;99.90;;;;;;4168456;28;19931;-56
2022/08/14 05:56:51;;;;;;;;;;;16.50;99.90;;;;;;4148174;28;19925;-58
2022/08/14 05:58:53;;;;;;;;;;;16.40;99.90;;;;;;4160338;28;20347;-57
2022/08/14 06:00:56;;;;;;;;;;;16.30;99.90;;;;;;4161305;28;20427;-56
2022/08/14 06:02:58;;;;;;;;;;;16.30;99.90;;;;;;4147991;28;20012;-58
2022/08/14 06:05:01;;;;;;;;;;;16.20;99.90;;;;;;4161872;28;19921;-57
2022/08/14 06:07:03;;;;;;;;;;;16.10;99.90;;;;;;4169285;28;19952;-57
2022/08/14 06:09:07;;;;;;;;;;;16.10;99.90;;;;;;4147118;28;19931;-56
2022/08/14 06:11:10;;;;;;;;;;;16.10;99.90;;;;;;4147715;28;19925;-57
2022/08/14 06:13:21;;;;;;;;;;;16.30;99.90;;;;;;4147653;28;19933;-57
2022/08/14 06:15:24;;;;;;;;;;;16.40;99.90;;;;;;4147814;28;19925;-56
2022/08/14 06:17:30;;;;;;;;;;;16.40;99.90;;;;;;4138912;28;19967;-58
2022/08/14 06:19:39;;;;;;;;;;;16.50;99.90;;;;;;4163991;28;19921;-57
2022/08/14 06:21:41;;;;;;;;;;;16.60;99.90;;;;;;4147813;28;19922;-56
2022/08/14 06:23:43;;;;;;;;;;;16.70;99.90;;;;;;4153974;28;19936;-56
2022/08/14 06:25:45;;;;;;;;;;;16.80;99.90;;;;;;4177045;28;19921;-58
2022/08/14 06:27:53;;;;;;;;;;;16.80;99.90;;;;;;4164602;28;19952;-56
2022/08/14 06:29:55;;;;;;;;;;;16.90;99.90;;;;;;4161269;28;19960;-57
2022/08/14 06:31:57;;;;;;;;;;;17.10;99.90;;;;;;4180578;28;19962;-56
2022/08/14 06:34:21;;;;;;;;;;;17.20;99.90;;;;;;4169969;28;19925;-56
2022/08/14 06:36:43;;;;;;;;;;;17.30;99.90;;;;;;4162250;28;19921;-56
2022/08/14 06:38:45;;;;;;;;;;;17.50;99.90;;;;;;4163868;28;19925;-57
2022/08/14 06:40:47;;;;;;;;;;;17.60;99.90;;;;;;4160515;28;19925;-56
2022/08/14 06:42:49;;;;;;;;;;;17.70;99.90;;;;;;4163494;28;20472;-58
2022/08/14 06:44:52;;;;;;;;;;;17.70;99.90;;;;;;4163708;28;19964;-57
2022/08/14 06:46:54;;;;;;;;;;;17.80;99.90;;;;;;4150139;28;19973;-56
2022/08/14 06:48:55;;;;;;;;;;;18.10;99.90;;;;;;4147225;28;19922;-57
2022/08/14 06:50:58;;;;;;;;;;;18.20;99.90;;;;;;4147322;28;20445;-57
2022/08/14 06:53:00;;;;;;;;;;;18.40;99.90;;;;;;4147136;28;19929;-57
2022/08/14 06:55:02;;;;;;;;;;;18.80;99.90;;;;;;4147025;28;20288;-57
2022/08/14 06:57:04;;;;;;;;;;;19.50;99.90;;;;;;4161130;28;19920;-56
2022/08/14 06:59:06;;;;;;;;;;;20.20;99.90;;;;;;4161279;28;19947;-57
2022/08/14 07:05:50;;;;;;;;;;;20.30;99.90;;;;;;4168216;28;19921;-57
2022/08/14 07:07:57;;;;;;;;;;;20.60;99.90;;;;;;4176268;28;20016;-56
2022/08/14 07:09:59;;;;;;;;;;;20.80;99.90;;;;;;4155329;28;19972;-57
2022/08/14 07:12:01;;;;;;;;;;;20.60;99.90;;;;;;4157433;28;19976;-56
2022/08/14 07:14:03;;;;;;;;;;;20.60;99.90;;;;;;4162093;28;19972;-56
2022/08/14 07:16:06;;;;;;;;;;;21.20;99.90;;;;;;4171159;28;19963;-56
2022/08/14 07:18:09;;;;;;;;;;;21.70;99.90;;;;;;4162507;28;19932;-56
2022/08/14 07:20:11;;;;;;;;;;;21.80;99.90;;;;;;4176557;28;19928;-56
2022/08/14 07:22:13;;;;;;;;;;;21.20;99.90;;;;;;4166897;28;19921;-56
2022/08/14 07:24:18;;;;;;;;;;;21.10;99.90;;;;;;4161301;28;19960;-56
2022/08/14 07:26:22;;;;;;;;;;;21.80;99.90;;;;;;4150426;28;20464;-57
2022/08/14 07:28:34;;;;;;;;;;;22.10;99.90;;;;;;4162183;28;19976;-56
2022/08/14 07:30:44;;;;;;;;;;;22.40;99.90;;;;;;4162069;28;19925;-57
2022/08/14 07:32:52;;;;;;;;;;;22.50;99.90;;;;;;4166888;28;19967;-56
2022/08/14 07:34:54;;;;;;;;;;;22.30;99.90;;;;;;4151259;28;20085;-57
2022/08/14 07:36:56;;;;;;;;;;;22.40;99.90;;;;;;4157621;28;19929;-56
2022/08/14 07:39:01;;;;;;;;;;;22.60;99.90;;;;;;4150257;28;20373;-57
2022/08/14 07:41:04;;;;;;;;;;;23.10;98.90;;;;;;4150204;28;19979;-57
2022/08/14 07:43:12;;;;;;;;;;;23.50;98.40;;;;;;4157599;28;20267;-57
2022/08/14 07:45:15;;;;;;;;;;;23.80;98.00;;;;;;4161677;28;19924;-56
2022/08/14 07:47:17;;;;;;;;;;;23.60;98.00;;;;;;4154166;28;19972;-57
2022/08/14 07:49:20;;;;;;;;;;;23.80;98.70;;;;;;4157051;28;19924;-56
2022/08/14 07:51:22;;;;;;;;;;;23.60;98.00;;;;;;4155982;28;19921;-57
2022/08/14 07:53:24;;;;;;;;;;;23.60;97.70;;;;;;4129613;28;20032;-56
2022/08/14 07:55:27;;;;;;;;;;;23.70;98.60;;;;;;4147940;28;20308;-57
2022/08/14 07:57:29;;;;;;;;;;;23.90;98.70;;;;;;4153473;28;19921;-57
2022/08/14 07:59:31;;;;;;;;;;;24.10;97.80;;;;;;4142228;28;19945;-57
2022/08/14 08:01:42;;;;;;;;;;;24.20;96.80;;;;;;4133598;28;19948;-57
2022/08/14 08:03:49;;;;;;;;;;;23.60;96.40;;;;;;4133817;28;19926;-57
2022/08/14 08:05:55;;;;;;;;;;;24.10;97.00;;;;;;4133251;28;20317;-57
2022/08/14 08:07:57;;;;;;;;;;;24.20;96.50;;;;;;4133480;28;19922;-57
2022/08/14 08:10:29;;;;;;;;;;;24.30;95.50;;;;;;4132769;28;19990;-57
2022/08/14 08:12:32;;;;;;;;;;;24.30;96.20;;;;;;4133371;28;19925;-57
2022/08/14 08:14:35;;;;;;;;;;;24.70;95.30;;;;;;4133412;28;20342;-57
2022/08/14 08:16:58;;;;;;;;;;;25.10;94.70;;;;;;4133781;28;19921;-57
2022/08/14 08:19:00;;;;;;;;;;;25.20;94.30;;;;;;4133497;28;19922;-57
2022/08/14 08:21:14;;;;;;;;;;;25.10;93.90;;;;;;4133434;28;19960;-57
2022/08/14 08:23:17;;;;;;;;;;;25.60;94.80;;;;;;4133676;28;19925;-56
2022/08/14 08:25:25;;;;;;;;;;;25.50;94.10;;;;;;4133198;28;20029;-57
2022/08/14 08:27:27;;;;;;;;;;;25.60;93.60;;;;;;4133234;28;19921;-57
2022/08/14 08:29:29;;;;;;;;;;;25.60;92.70;;;;;;4133517;28;19941;-58
2022/08/14 08:31:31;;;;;;;;;;;25.90;93.90;;;;;;4131932;28;20008;-58
2022/08/14 08:33:37;;;;;;;;;;;26.30;92.40;;;;;;4148521;28;19980;-57
2022/08/14 08:35:39;;;;;;;;;;;26.30;92.50;;;;;;4148788;28;19971;-57
2022/08/14 08:37:48;;;;;;;;;;;26.80;91.40;;;;;;4149280;28;19971;-56
2022/08/14 08:40:02;;;;;;;;;;;26.80;91.30;;;;;;4149442;28;20012;-57
2022/08/14 08:42:06;;;;;;;;;;;26.80;90.80;;;;;;4149484;28;19931;-57
2022/08/14 08:44:08;;;;;;;;;;;26.80;89.60;;;;;;4141623;28;20417;-56
2022/08/14 08:46:19;;;;;;;;;;;27.10;91.00;;;;;;4124906;28;19936;-56
2022/08/14 08:48:28;;;;;;;;;;;27.10;89.00;;;;;;4132937;28;20043;-58
2022/08/14 08:50:34;;;;;;;;;;;27.00;89.90;;;;;;4148363;28;20705;-58
2022/08/14 08:52:45;;;;;;;;;;;27.20;90.60;;;;;;4157412;28;19913;-56
2022/08/14 08:54:53;;;;;;;;;;;27.30;90.70;;;;;;4158045;28;20016;-56
2022/08/14 08:56:56;;;;;;;;;;;27.50;89.80;;;;;;4157648;28;19960;-57
2022/08/14 08:58:58;;;;;;;;;;;27.40;87.30;;;;;;4146146;28;19921;-57
2022/08/14 09:01:00;;;;;;;;;;;27.40;87.10;;;;;;4158017;28;19929;-57
2022/08/14 09:03:10;;;;;;;;;;;27.40;87.70;;;;;;4158544;28;20266;-59
2022/08/14 09:05:12;;;;;;;;;;;27.40;82.50;;;;;;4158494;28;19931;-57
2022/08/14 09:07:14;;;;;;;;;;;27.60;85.20;;;;;;4160450;28;19932;-56
2022/08/14 09:09:18;;;;;;;;;;;27.60;83.30;;;;;;4153595;28;19929;-57
2022/08/14 09:11:22;;;;;;;;;;;27.90;86.90;;;;;;4157178;28;20373;-57
2022/08/14 09:13:25;;;;;;;;;;;27.90;84.60;;;;;;4159435;28;19925;-57
2022/08/14 09:15:27;;;;;;;;;;;27.30;85.20;;;;;;4154556;28;19921;-57
2022/08/14 09:17:44;;;;;;;;;;;27.60;84.20;;;;;;4159267;28;19946;-58
2022/08/14 09:19:47;;;;;;;;;;;28.00;84.90;;;;;;4159015;28;19929;-56
2022/08/14 09:21:49;;;;;;;;;;;28.50;85.80;;;;;;4158409;28;20012;-57
2022/08/14 09:23:54;;;;;;;;;;;28.80;84.20;;;;;;4164468;28;19935;-57
2022/08/14 09:26:16;;;;;;;;;;;28.80;82.90;;;;;;4160916;28;19932;-57
2022/08/14 09:28:22;;;;;;;;;;;27.90;83.10;;;;;;4165698;28;20628;-58
2022/08/14 09:30:25;;;;;;;;;;;27.90;81.60;;;;;;4157303;28;20039;-57
2022/08/14 09:32:59;;;;;;;;;;;28.20;83.00;;;;;;4165273;28;19932;-57
2022/08/14 09:35:02;;;;;;;;;;;28.50;84.10;;;;;;4165469;28;20388;-57
2022/08/14 09:37:04;;;;;;;;;;;29.00;80.30;;;;;;4163515;28;19964;-57
2022/08/14 09:39:11;;;;;;;;;;;28.70;83.40;;;;;;4160886;28;19921;-57
2022/08/14 09:41:33;;;;;;;;;;;29.10;83.40;;;;;;4153858;28;20130;-57
2022/08/14 09:44:07;;;;;;;;;;;29.60;80.30;;;;;;4153260;28;20105;-58
2022/08/14 09:46:11;;;;;;;;;;;29.20;77.60;;;;;;4160040;28;20395;-56
2022/08/14 09:48:19;;;;;;;;;;;29.50;82.40;;;;;;4160062;28;19924;-56
2022/08/14 09:50:21;;;;;;;;;;;29.00;80.70;;;;;;4150534;28;19969;-58
2022/08/14 09:52:26;;;;;;;;;;;29.30;83.20;;;;;;4140153;28;19922;-57
2022/08/14 09:54:39;;;;;;;;;;;29.60;81.00;;;;;;4155019;28;20308;-57
2022/08/14 09:56:42;;;;;;;;;;;29.60;76.60;;;;;;4145356;28;19949;-57
2022/08/14 09:58:45;;;;;;;;;;;29.60;75.80;;;;;;4131886;28;19929;-57
2022/08/14 10:00:48;;;;;;;;;;;29.40;75.40;;;;;;4131936;28;20049;-57
2022/08/14 10:02:52;;;;;;;;;;;29.20;75.50;;;;;;4141279;28;19921;-56
2022/08/14 10:05:03;;;;;;;;;;;28.90;75.40;;;;;;4145262;28;19921;-57
2022/08/14 10:07:05;;;;;;;;;;;28.90;74.00;;;;;;4145273;28;20460;-58
2022/08/14 10:09:10;;;;;;;;;;;29.30;76.00;;;;;;4147884;28;19980;-56
2022/08/14 10:11:18;;;;;;;;;;;29.90;80.20;;;;;;4138857;28;20789;-57
2022/08/14 10:13:24;;;;;;;;;;;30.40;74.20;;;;;;4132968;28;19921;-57
2022/08/14 10:15:26;;;;;;;;;;;30.20;72.80;;;;;;4131404;28;19929;-57
2022/08/14 10:17:30;;;;;;;;;;;29.40;71.10;;;;;;4131235;28;19922;-57
2022/08/14 10:19:34;;;;;;;;;;;29.70;72.80;;;;;;4138791;28;19921;-57
2022/08/14 10:21:38;;;;;;;;;;;29.80;72.60;;;;;;4144663;28;20285;-57
2022/08/14 10:24:01;;;;;;;;;;;29.90;74.10;;;;;;4143310;28;19921;-56
2022/08/14 10:26:04;;;;;;;;;;;30.40;74.40;;;;;;4127438;28;19926;-57
2022/08/14 10:28:06;;;;;;;;;;;30.20;73.80;;;;;;4150852;28;19929;-57
2022/08/14 10:30:13;;;;;;;;;;;30.60;74.80;;;;;;4141118;28;19929;-57
2022/08/14 10:32:15;;;;;;;;;;;30.40;72.00;;;;;;4151860;28;19941;-59
2022/08/14 10:34:19;;;;;;;;;;;30.70;72.00;;;;;;4144608;28;19925;-57
2022/08/14 10:36:25;;;;;;;;;;;31.00;72.70;;;;;;4142707;28;19933;-57
2022/08/14 10:38:36;;;;;;;;;;;31.40;71.20;;;;;;4147129;28;20370;-56
2022/08/14 10:40:38;;;;;;;;;;;31.20;69.70;;;;;;4147201;28;20392;-57
2022/08/14 10:42:45;;;;;;;;;;;30.90;70.20;;;;;;4137068;28;19922;-57
2022/08/14 10:44:49;;;;;;;;;;;30.70;69.90;;;;;;4141484;28;20463;-56
2022/08/14 10:47:01;;;;;;;;;;;30.70;71.00;;;;;;4145210;28;19925;-57
2022/08/14 10:49:25;;;;;;;;;;;30.50;69.10;;;;;;4137291;28;20390;-58
2022/08/14 10:51:28;;;;;;;;;;;29.80;68.40;;;;;;4136422;28;19933;-57
2022/08/14 10:53:33;;;;;;;;;;;30.10;69.10;;;;;;4141515;28;19929;-57
2022/08/14 10:55:38;;;;;;;;;;;30.40;70.50;;;;;;4143542;28;19921;-56
2022/08/14 10:57:50;;;;;;;;;;;30.90;70.10;;;;;;4146549;28;19921;-57
2022/08/14 10:59:54;;;;;;;;;;;31.10;74.00;;;;;;4130709;28;19925;-57
2022/08/14 11:01:58;;;;;;;;;;;31.50;69.20;;;;;;4143827;28;19921;-57
2022/08/14 11:04:00;;;;;;;;;;;32.20;72.50;;;;;;4138971;28;19921;-57
2022/08/14 11:06:18;;;;;;;;;;;32.40;68.60;;;;;;4135584;28;19921;-57
2022/08/14 11:08:29;;;;;;;;;;;32.10;66.60;;;;;;4138535;28;19930;-58
2022/08/14 11:10:38;;;;;;;;;;;31.60;67.60;;;;;;4141264;28;20381;-58
2022/08/14 11:12:46;;;;;;;;;;;31.30;68.60;;;;;;4139766;28;19960;-58
2022/08/14 11:14:51;;;;;;;;;;;31.30;65.40;;;;;;4145283;28;19932;-57
2022/08/14 11:16:59;;;;;;;;;;;31.20;67.50;;;;;;4140070;28;19922;-57
2022/08/14 11:19:02;;;;;;;;;;;31.10;64.80;;;;;;4139426;28;20223;-57
2022/08/14 11:21:07;;;;;;;;;;;31.20;67.70;;;;;;4134026;28;19922;-57
2022/08/14 11:23:11;;;;;;;;;;;31.90;69.40;;;;;;4146728;28;20031;-57
2022/08/14 11:25:14;;;;;;;;;;;32.20;67.30;;;;;;4144825;28;19922;-57
2022/08/14 11:27:16;;;;;;;;;;;32.10;67.30;;;;;;4141881;28;19928;-57
2022/08/14 11:29:20;;;;;;;;;;;32.70;70.30;;;;;;4134330;28;20337;-57
2022/08/14 11:31:22;;;;;;;;;;;32.70;64.90;;;;;;4150641;28;20199;-57
2022/08/14 11:33:29;;;;;;;;;;;32.70;67.10;;;;;;4153726;28;20372;-57
2022/08/14 11:35:31;;;;;;;;;;;33.20;69.30;;;;;;4150339;28;19921;-62
2022/08/14 11:38:03;;;;;;;;;;;33.40;66.60;;;;;;4147169;28;20365;-63
2022/08/14 11:40:14;;;;;;;;;;;33.30;64.60;;;;;;4146764;28;20624;-63
2022/08/14 11:42:20;;;;;;;;;;;33.60;69.80;;;;;;4148865;28;19949;-63
2022/08/14 11:44:42;;;;;;;;;;;33.90;66.30;;;;;;4143614;28;19954;-62
2022/08/14 11:46:48;;;;;;;;;;;33.30;65.30;;;;;;4126788;28;19989;-64
2022/08/14 11:48:51;;;;;;;;;;;33.10;65.90;;;;;;4145893;28;19996;-64
2022/08/14 11:51:11;;;;;;;;;;;32.90;64.80;;;;;;4146237;28;19929;-63
2022/08/14 11:53:19;;;;;;;;;;;32.30;67.30;;;;;;4139038;28;19926;-63
2022/08/14 11:55:21;;;;;;;;;;;32.20;65.50;;;;;;4145350;28;19929;-63
2022/08/14 11:57:26;;;;;;;;;;;32.30;62.00;;;;;;4146068;28;19987;-63
2022/08/14 11:59:31;;;;;;;;;;;32.70;68.60;;;;;;4144724;28;20411;-63
2022/08/14 12:01:35;;;;;;;;;;;33.00;64.50;;;;;;4145808;28;20509;-64
2022/08/14 12:03:45;;;;;;;;;;;33.40;63.90;;;;;;4146232;28;19975;-63
2022/08/14 12:06:02;;;;;;;;;;;32.90;60.50;;;;;;4139509;28;19921;-63
2022/08/14 12:08:06;;;;;;;;;;;32.10;61.70;;;;;;4139321;28;19957;-63
2022/08/14 12:10:16;;;;;;;;;;;31.90;62.50;;;;;;4149047;28;19959;-63
2022/08/14 12:12:31;;;;;;;;;;;32.30;61.80;;;;;;4145695;28;20377;-63
2022/08/14 12:14:46;;;;;;;;;;;32.00;62.60;;;;;;4137902;28;19921;-63
2022/08/14 12:17:01;;;;;;;;;;;32.60;62.10;;;;;;4146110;28;20444;-63
2022/08/14 12:19:04;;;;;;;;;;;32.60;60.00;;;;;;4145804;28;19975;-63
2022/08/14 12:21:16;;;;;;;;;;;32.30;62.20;;;;;;4148724;28;19925;-63
2022/08/14 12:23:21;;;;;;;;;;;32.40;61.10;;;;;;4148728;28;20381;-63
2022/08/14 12:25:23;;;;;;;;;;;32.60;62.40;;;;;;4146479;28;19968;-62
2022/08/14 12:27:39;;;;;;;;;;;33.10;66.30;;;;;;4148357;28;20016;-63
2022/08/14 12:29:52;;;;;;;;;;;33.40;60.30;;;;;;4147917;28;19929;-63
2022/08/14 12:31:59;;;;;;;;;;;33.40;60.60;;;;;;4161410;28;19921;-63
2022/08/14 12:34:02;;;;;;;;;;;33.40;61.90;;;;;;4145217;28;19925;-63